sensor_id;sensor_type;location;lat;lon;timestamp;temperature;humidity
26099;DHT22;13860;52.370;6.764;2023-03-01T00:01:11;0.70;63.50
26099;DHT22;13860;52.370;6.764;2023-03-01T00:04:15;0.70;63.60
26099;DHT22;13860;52.370;6.764;2023-03-01T00:07:21;0.70;63.60
26099;DHT22;13860;52.370;6.764;2023-03-01T00:10:27;0.70;63.60
26099;DHT22;13860;52.370;6.764;2023-03-01T00:13:33;0.70;63.70
26099;DHT22;13860;52.370;6.764;2023-03-01T00:16:40;0.70;63.70
26099;DHT22;13860;52.370;6.764;2023-03-01T00:19:46;0.60;63.70
26099;DHT22;13860;52.370;6.764;2023-03-01T00:22:50;0.60;64.40
26099;DHT22;13860;52.370;6.764;2023-03-01T00:25:58;0.60;63.70
26099;DHT22;13860;52.370;6.764;2023-03-01T00:29:02;0.60;63.80
26099;DHT22;13860;52.370;6.764;2023-03-01T00:32:08;0.50;63.80
26099;DHT22;13860;52.370;6.764;2023-03-01T00:35:13;0.50;63.80
26099;DHT22;13860;52.370;6.764;2023-03-01T00:38:18;0.50;63.80
26099;DHT22;13860;52.370;6.764;2023-03-01T00:41:24;0.50;63.90
26099;DHT22;13860;52.370;6.764;2023-03-01T00:44:32;0.50;63.90
26099;DHT22;13860;52.370;6.764;2023-03-01T00:47:36;0.40;63.80
26099;DHT22;13860;52.370;6.764;2023-03-01T00:50:41;0.40;63.90
26099;DHT22;13860;52.370;6.764;2023-03-01T00:53:46;0.40;64.00
26099;DHT22;13860;52.370;6.764;2023-03-01T00:56:54;0.30;63.90
26099;DHT22;13860;52.370;6.764;2023-03-01T00:59:58;0.30;63.90
26099;DHT22;13860;52.370;6.764;2023-03-01T01:03:05;0.30;64.00
26099;DHT22;13860;52.370;6.764;2023-03-01T01:06:13;0.30;64.00
26099;DHT22;13860;52.370;6.764;2023-03-01T01:09:20;0.20;64.00
26099;DHT22;13860;52.370;6.764;2023-03-01T01:12:26;0.20;64.70
26099;DHT22;13860;52.370;6.764;2023-03-01T01:15:33;0.10;64.10
26099;DHT22;13860;52.370;6.764;2023-03-01T01:18:37;0.10;64.10
26099;DHT22;13860;52.370;6.764;2023-03-01T01:21:45;0.10;64.10
26099;DHT22;13860;52.370;6.764;2023-03-01T01:24:49;0.10;64.20
26099;DHT22;13860;52.370;6.764;2023-03-01T01:27:57;0.10;64.20
26099;DHT22;13860;52.370;6.764;2023-03-01T01:31:02;0.00;64.10
26099;DHT22;13860;52.370;6.764;2023-03-01T01:34:13;0.00;64.10
26099;DHT22;13860;52.370;6.764;2023-03-01T01:37:18;0.00;64.20
26099;DHT22;13860;52.370;6.764;2023-03-01T01:40:24;0.00;64.20
26099;DHT22;13860;52.370;6.764;2023-03-01T01:43:32;-0.10;64.20
26099;DHT22;13860;52.370;6.764;2023-03-01T01:46:40;-0.10;64.20
26099;DHT22;13860;52.370;6.764;2023-03-01T01:49:47;-0.10;64.30
26099;DHT22;13860;52.370;6.764;2023-03-01T01:52:54;-0.20;64.30
26099;DHT22;13860;52.370;6.764;2023-03-01T01:56:00;-0.20;64.30
26099;DHT22;13860;52.370;6.764;2023-03-01T01:59:09;-0.20;64.30
26099;DHT22;13860;52.370;6.764;2023-03-01T02:02:13;-0.30;64.30
26099;DHT22;13860;52.370;6.764;2023-03-01T02:05:25;-0.20;64.30
26099;DHT22;13860;52.370;6.764;2023-03-01T02:08:32;-0.30;64.30
26099;DHT22;13860;52.370;6.764;2023-03-01T02:11:39;-0.30;64.30
26099;DHT22;13860;52.370;6.764;2023-03-01T02:14:45;-0.30;64.40
26099;DHT22;13860;52.370;6.764;2023-03-01T02:17:52;-0.30;64.60
26099;DHT22;13860;52.370;6.764;2023-03-01T02:21:05;-0.30;64.50
26099;DHT22;13860;52.370;6.764;2023-03-01T02:24:21;-0.40;64.40
26099;DHT22;13860;52.370;6.764;2023-03-01T02:27:33;-0.40;64.40
26099;DHT22;13860;52.370;6.764;2023-03-01T02:30:47;-0.40;64.50
26099;DHT22;13860;52.370;6.764;2023-03-01T02:34:05;-0.40;64.50
26099;DHT22;13860;52.370;6.764;2023-03-01T02:37:14;-0.40;64.50
26099;DHT22;13860;52.370;6.764;2023-03-01T02:40:22;-0.50;64.50
26099;DHT22;13860;52.370;6.764;2023-03-01T02:43:30;-0.50;64.60
26099;DHT22;13860;52.370;6.764;2023-03-01T02:46:42;-0.50;64.60
26099;DHT22;13860;52.370;6.764;2023-03-01T02:49:48;-0.50;64.60
26099;DHT22;13860;52.370;6.764;2023-03-01T02:52:56;-0.60;64.60
26099;DHT22;13860;52.370;6.764;2023-03-01T02:56:04;-0.60;64.60
26099;DHT22;13860;52.370;6.764;2023-03-01T02:59:16;-0.60;64.70
26099;DHT22;13860;52.370;6.764;2023-03-01T03:02:27;-0.60;64.70
26099;DHT22;13860;52.370;6.764;2023-03-01T03:06:05;-0.70;64.70
26099;DHT22;13860;52.370;6.764;2023-03-01T03:09:12;-0.70;64.70
26099;DHT22;13860;52.370;6.764;2023-03-01T03:12:18;-0.70;64.70
26099;DHT22;13860;52.370;6.764;2023-03-01T03:15:25;-0.70;64.80
26099;DHT22;13860;52.370;6.764;2023-03-01T03:18:32;-0.70;64.80
26099;DHT22;13860;52.370;6.764;2023-03-01T03:21:38;-0.80;64.80
26099;DHT22;13860;52.370;6.764;2023-03-01T03:24:44;-0.80;64.80
26099;DHT22;13860;52.370;6.764;2023-03-01T03:27:52;-0.80;64.80
26099;DHT22;13860;52.370;6.764;2023-03-01T03:30:58;-0.80;64.90
26099;DHT22;13860;52.370;6.764;2023-03-01T03:34:08;-0.80;64.90
26099;DHT22;13860;52.370;6.764;2023-03-01T03:37:19;-0.80;64.90
26099;DHT22;13860;52.370;6.764;2023-03-01T03:40:39;-0.90;64.90
26099;DHT22;13860;52.370;6.764;2023-03-01T03:43:44;-0.90;65.00
26099;DHT22;13860;52.370;6.764;2023-03-01T03:46:50;-0.90;65.00
26099;DHT22;13860;52.370;6.764;2023-03-01T03:49:56;-0.90;65.10
26099;DHT22;13860;52.370;6.764;2023-03-01T03:53:04;-0.90;65.10
26099;DHT22;13860;52.370;6.764;2023-03-01T03:56:08;-0.90;65.10
26099;DHT22;13860;52.370;6.764;2023-03-01T03:59:14;-1.00;65.10
26099;DHT22;13860;52.370;6.764;2023-03-01T04:02:18;-1.00;65.10
26099;DHT22;13860;52.370;6.764;2023-03-01T04:05:28;-1.00;65.10
26099;DHT22;13860;52.370;6.764;2023-03-01T04:08:32;-1.00;65.20
26099;DHT22;13860;52.370;6.764;2023-03-01T04:11:38;-1.00;65.20
26099;DHT22;13860;52.370;6.764;2023-03-01T04:14:42;-1.00;65.20
26099;DHT22;13860;52.370;6.764;2023-03-01T04:17:49;-1.10;65.20
26099;DHT22;13860;52.370;6.764;2023-03-01T04:20:56;-1.10;65.30
26099;DHT22;13860;52.370;6.764;2023-03-01T04:24:02;-1.10;65.20
26099;DHT22;13860;52.370;6.764;2023-03-01T04:27:06;-1.10;65.30
26099;DHT22;13860;52.370;6.764;2023-03-01T04:30:13;-1.10;65.30
26099;DHT22;13860;52.370;6.764;2023-03-01T04:33:17;-1.20;65.30
26099;DHT22;13860;52.370;6.764;2023-03-01T04:36:27;-1.10;65.40
26099;DHT22;13860;52.370;6.764;2023-03-01T04:39:32;-1.20;65.40
26099;DHT22;13860;52.370;6.764;2023-03-01T04:42:49;-1.20;65.40
26099;DHT22;13860;52.370;6.764;2023-03-01T04:45:53;-1.20;65.40
26099;DHT22;13860;52.370;6.764;2023-03-01T04:48:59;-1.20;65.40
26099;DHT22;13860;52.370;6.764;2023-03-01T04:52:05;-1.20;65.40
26099;DHT22;13860;52.370;6.764;2023-03-01T04:55:11;-1.30;65.40
26099;DHT22;13860;52.370;6.764;2023-03-01T04:58:15;-1.30;65.40
26099;DHT22;13860;52.370;6.764;2023-03-01T05:01:21;-1.30;65.40
26099;DHT22;13860;52.370;6.764;2023-03-01T05:04:25;-1.30;65.50
26099;DHT22;13860;52.370;6.764;2023-03-01T05:07:33;-1.30;65.50
26099;DHT22;13860;52.370;6.764;2023-03-01T05:10:37;-1.30;65.50
26099;DHT22;13860;52.370;6.764;2023-03-01T05:13:44;-1.40;65.50
26099;DHT22;13860;52.370;6.764;2023-03-01T05:16:48;-1.40;65.60
26099;DHT22;13860;52.370;6.764;2023-03-01T05:19:54;-1.40;65.60
26099;DHT22;13860;52.370;6.764;2023-03-01T05:23:03;-1.40;65.60
26099;DHT22;13860;52.370;6.764;2023-03-01T05:26:10;-1.40;65.60
26099;DHT22;13860;52.370;6.764;2023-03-01T05:29:31;-1.50;65.60
26099;DHT22;13860;52.370;6.764;2023-03-01T05:32:39;-1.40;65.60
26099;DHT22;13860;52.370;6.764;2023-03-01T05:35:45;-1.50;65.70
26099;DHT22;13860;52.370;6.764;2023-03-01T05:38:54;-1.50;65.70
26099;DHT22;13860;52.370;6.764;2023-03-01T05:41:59;-1.50;65.70
26099;DHT22;13860;52.370;6.764;2023-03-01T05:45:06;-1.50;65.80
26099;DHT22;13860;52.370;6.764;2023-03-01T05:48:12;-1.60;65.70
26099;DHT22;13860;52.370;6.764;2023-03-01T05:51:18;-1.50;65.80
26099;DHT22;13860;52.370;6.764;2023-03-01T05:54:25;-1.60;65.80
26099;DHT22;13860;52.370;6.764;2023-03-01T05:57:31;-1.60;65.80
26099;DHT22;13860;52.370;6.764;2023-03-01T06:00:35;-1.60;65.90
26099;DHT22;13860;52.370;6.764;2023-03-01T06:03:41;-1.60;65.90
26099;DHT22;13860;52.370;6.764;2023-03-01T06:06:45;-1.60;65.90
26099;DHT22;13860;52.370;6.764;2023-03-01T06:09:53;-1.60;65.90
26099;DHT22;13860;52.370;6.764;2023-03-01T06:12:57;-1.70;65.80
26099;DHT22;13860;52.370;6.764;2023-03-01T06:16:05;-1.70;65.90
26099;DHT22;13860;52.370;6.764;2023-03-01T06:19:09;-1.70;65.90
26099;DHT22;13860;52.370;6.764;2023-03-01T06:22:15;-1.70;65.90
26099;DHT22;13860;52.370;6.764;2023-03-01T06:25:23;-1.70;66.00
26099;DHT22;13860;52.370;6.764;2023-03-01T06:28:30;-1.70;66.00
26099;DHT22;13860;52.370;6.764;2023-03-01T06:31:34;-1.70;66.00
26099;DHT22;13860;52.370;6.764;2023-03-01T06:34:40;-1.70;66.00
26099;DHT22;13860;52.370;6.764;2023-03-01T06:37:44;-1.80;66.00
26099;DHT22;13860;52.370;6.764;2023-03-01T06:40:55;-1.80;66.00
26099;DHT22;13860;52.370;6.764;2023-03-01T06:44:00;-1.80;66.10
26099;DHT22;13860;52.370;6.764;2023-03-01T06:47:06;-1.80;66.10
26099;DHT22;13860;52.370;6.764;2023-03-01T06:50:11;-1.80;66.10
26099;DHT22;13860;52.370;6.764;2023-03-01T06:53:17;-1.80;66.10
26099;DHT22;13860;52.370;6.764;2023-03-01T06:56:23;-1.80;66.10
26099;DHT22;13860;52.370;6.764;2023-03-01T06:59:29;-1.80;66.20
26099;DHT22;13860;52.370;6.764;2023-03-01T07:02:33;-1.80;66.20
26099;DHT22;13860;52.370;6.764;2023-03-01T07:05:39;-1.80;66.30
26099;DHT22;13860;52.370;6.764;2023-03-01T07:08:43;-1.80;66.30
26099;DHT22;13860;52.370;6.764;2023-03-01T07:11:51;-1.80;66.30
26099;DHT22;13860;52.370;6.764;2023-03-01T07:14:55;-1.80;66.40
26099;DHT22;13860;52.370;6.764;2023-03-01T07:18:01;-1.70;66.50
26099;DHT22;13860;52.370;6.764;2023-03-01T07:21:06;-1.70;66.50
26099;DHT22;13860;52.370;6.764;2023-03-01T07:24:12;-1.70;66.50
26099;DHT22;13860;52.370;6.764;2023-03-01T07:27:18;-1.70;66.50
26099;DHT22;13860;52.370;6.764;2023-03-01T07:30:24;-1.60;66.70
26099;DHT22;13860;52.370;6.764;2023-03-01T07:33:30;-1.60;66.80
26099;DHT22;13860;52.370;6.764;2023-03-01T07:36:36;-1.50;66.80
26099;DHT22;13860;52.370;6.764;2023-03-01T07:39:41;-1.40;67.00
26099;DHT22;13860;52.370;6.764;2023-03-01T07:42:49;-1.20;67.10
26099;DHT22;13860;52.370;6.764;2023-03-01T07:45:52;-1.20;67.20
26099;DHT22;13860;52.370;6.764;2023-03-01T07:48:58;-1.10;67.20
26099;DHT22;13860;52.370;6.764;2023-03-01T07:52:03;-0.90;67.30
26099;DHT22;13860;52.370;6.764;2023-03-01T07:55:09;-0.80;67.40
26099;DHT22;13860;52.370;6.764;2023-03-01T07:58:16;-0.60;67.50
26099;DHT22;13860;52.370;6.764;2023-03-01T08:01:22;-0.40;67.60
26099;DHT22;13860;52.370;6.764;2023-03-01T08:04:26;-0.20;67.60
26099;DHT22;13860;52.370;6.764;2023-03-01T08:07:33;0.10;67.80
26099;DHT22;13860;52.370;6.764;2023-03-01T08:10:37;0.30;67.80
26099;DHT22;13860;52.370;6.764;2023-03-01T08:13:47;0.60;67.80
26099;DHT22;13860;52.370;6.764;2023-03-01T08:16:55;0.80;67.80
26099;DHT22;13860;52.370;6.764;2023-03-01T08:20:01;1.10;67.80
26099;DHT22;13860;52.370;6.764;2023-03-01T08:23:07;1.30;67.70
26099;DHT22;13860;52.370;6.764;2023-03-01T08:26:16;1.60;67.80
26099;DHT22;13860;52.370;6.764;2023-03-01T08:29:22;1.80;67.70
26099;DHT22;13860;52.370;6.764;2023-03-01T08:32:29;2.10;67.80
26099;DHT22;13860;52.370;6.764;2023-03-01T08:35:33;2.30;67.70
26099;DHT22;13860;52.370;6.764;2023-03-01T08:38:40;2.60;67.70
26099;DHT22;13860;52.370;6.764;2023-03-01T08:41:46;2.80;67.70
26099;DHT22;13860;52.370;6.764;2023-03-01T08:44:54;3.10;67.70
26099;DHT22;13860;52.370;6.764;2023-03-01T08:47:58;3.30;67.70
26099;DHT22;13860;52.370;6.764;2023-03-01T08:51:09;3.50;67.70
26099;DHT22;13860;52.370;6.764;2023-03-01T08:54:16;3.80;67.60
26099;DHT22;13860;52.370;6.764;2023-03-01T08:57:22;4.00;67.60
26099;DHT22;13860;52.370;6.764;2023-03-01T09:00:28;4.20;67.50
26099;DHT22;13860;52.370;6.764;2023-03-01T09:03:34;4.40;67.50
26099;DHT22;13860;52.370;6.764;2023-03-01T09:06:38;4.70;67.50
26099;DHT22;13860;52.370;6.764;2023-03-01T09:09:44;4.90;67.40
26099;DHT22;13860;52.370;6.764;2023-03-01T09:12:48;5.10;67.40
26099;DHT22;13860;52.370;6.764;2023-03-01T09:15:56;5.40;67.40
26099;DHT22;13860;52.370;6.764;2023-03-01T09:19:00;5.60;67.20
26099;DHT22;13860;52.370;6.764;2023-03-01T09:22:06;5.80;67.10
26099;DHT22;13860;52.370;6.764;2023-03-01T09:25:10;6.00;67.00
26099;DHT22;13860;52.370;6.764;2023-03-01T09:28:16;6.10;66.90
26099;DHT22;13860;52.370;6.764;2023-03-01T09:31:33;6.30;66.90
26099;DHT22;13860;52.370;6.764;2023-03-01T09:34:39;6.50;66.80
26099;DHT22;13860;52.370;6.764;2023-03-01T09:37:55;6.70;66.80
26099;DHT22;13860;52.370;6.764;2023-03-01T09:41:01;6.90;66.60
26099;DHT22;13860;52.370;6.764;2023-03-01T09:44:13;7.00;66.50
26099;DHT22;13860;52.370;6.764;2023-03-01T09:47:25;7.20;66.40
26099;DHT22;13860;52.370;6.764;2023-03-01T09:50:35;7.40;66.40
26099;DHT22;13860;52.370;6.764;2023-03-01T09:53:44;7.60;66.20
26099;DHT22;13860;52.370;6.764;2023-03-01T09:56:52;7.80;66.10
26099;DHT22;13860;52.370;6.764;2023-03-01T10:00:20;7.90;66.00
26099;DHT22;13860;52.370;6.764;2023-03-01T10:03:33;8.10;65.90
26099;DHT22;13860;52.370;6.764;2023-03-01T10:06:43;8.20;65.70
26099;DHT22;13860;52.370;6.764;2023-03-01T10:09:48;8.40;65.60
26099;DHT22;13860;52.370;6.764;2023-03-01T10:12:56;8.50;65.40
26099;DHT22;13860;52.370;6.764;2023-03-01T10:16:05;8.60;65.30
26099;DHT22;13860;52.370;6.764;2023-03-01T10:19:23;8.70;65.10
26099;DHT22;13860;52.370;6.764;2023-03-01T10:22:29;8.70;64.90
26099;DHT22;13860;52.370;6.764;2023-03-01T10:25:45;8.80;64.80
26099;DHT22;13860;52.370;6.764;2023-03-01T10:28:58;8.90;64.60
26099;DHT22;13860;52.370;6.764;2023-03-01T10:32:06;9.00;64.60
26099;DHT22;13860;52.370;6.764;2023-03-01T10:35:20;9.10;64.60
26099;DHT22;13860;52.370;6.764;2023-03-01T10:38:30;9.20;64.30
26099;DHT22;13860;52.370;6.764;2023-03-01T10:41:48;9.30;64.30
26099;DHT22;13860;52.370;6.764;2023-03-01T10:44:58;9.40;64.20
26099;DHT22;13860;52.370;6.764;2023-03-01T10:48:21;9.50;64.10
26099;DHT22;13860;52.370;6.764;2023-03-01T10:51:30;9.50;63.60
26099;DHT22;13860;52.370;6.764;2023-03-01T10:54:34;9.70;63.80
26099;DHT22;13860;52.370;6.764;2023-03-01T10:57:40;9.70;63.60
26099;DHT22;13860;52.370;6.764;2023-03-01T11:00:49;9.80;63.40
26099;DHT22;13860;52.370;6.764;2023-03-01T11:04:10;9.80;63.20
26099;DHT22;13860;52.370;6.764;2023-03-01T11:07:17;9.90;62.90
26099;DHT22;13860;52.370;6.764;2023-03-01T11:10:27;9.90;62.90
26099;DHT22;13860;52.370;6.764;2023-03-01T11:13:31;9.90;62.90
26099;DHT22;13860;52.370;6.764;2023-03-01T11:16:38;9.90;62.70
26099;DHT22;13860;52.370;6.764;2023-03-01T11:19:43;9.90;62.50
26099;DHT22;13860;52.370;6.764;2023-03-01T11:23:10;9.90;62.50
26099;DHT22;13860;52.370;6.764;2023-03-01T11:26:17;9.90;62.40
26099;DHT22;13860;52.370;6.764;2023-03-01T11:29:29;9.90;62.40
26099;DHT22;13860;52.370;6.764;2023-03-01T11:32:56;9.80;62.10
26099;DHT22;13860;52.370;6.764;2023-03-01T11:36:15;9.80;62.10
26099;DHT22;13860;52.370;6.764;2023-03-01T11:39:28;9.90;62.00
26099;DHT22;13860;52.370;6.764;2023-03-01T11:42:46;9.80;61.80
26099;DHT22;13860;52.370;6.764;2023-03-01T11:46:02;9.80;61.80
26099;DHT22;13860;52.370;6.764;2023-03-01T11:49:36;9.80;61.70
26099;DHT22;13860;52.370;6.764;2023-03-01T11:52:52;9.80;61.70
26099;DHT22;13860;52.370;6.764;2023-03-01T11:56:13;9.80;61.70
26099;DHT22;13860;52.370;6.764;2023-03-01T11:59:45;9.90;61.50
26099;DHT22;13860;52.370;6.764;2023-03-01T12:03:16;9.90;61.30
26099;DHT22;13860;52.370;6.764;2023-03-01T12:06:41;9.90;61.40
26099;DHT22;13860;52.370;6.764;2023-03-01T12:10:02;9.90;61.40
26099;DHT22;13860;52.370;6.764;2023-03-01T12:13:35;9.90;61.20
26099;DHT22;13860;52.370;6.764;2023-03-01T12:20:22;10.00;61.20
26099;DHT22;13860;52.370;6.764;2023-03-01T12:23:59;10.00;61.10
26099;DHT22;13860;52.370;6.764;2023-03-01T12:27:24;10.10;60.90
26099;DHT22;13860;52.370;6.764;2023-03-01T12:30:45;10.10;61.10
26099;DHT22;13860;52.370;6.764;2023-03-01T12:33:57;10.10;60.80
26099;DHT22;13860;52.370;6.764;2023-03-01T12:37:12;10.10;60.90
26099;DHT22;13860;52.370;6.764;2023-03-01T12:40:34;10.20;61.10
26099;DHT22;13860;52.370;6.764;2023-03-01T12:43:56;10.20;61.70
26099;DHT22;13860;52.370;6.764;2023-03-01T12:47:13;10.20;60.90
26099;DHT22;13860;52.370;6.764;2023-03-01T12:50:24;10.30;60.70
26099;DHT22;13860;52.370;6.764;2023-03-01T12:53:36;10.30;60.80
26099;DHT22;13860;52.370;6.764;2023-03-01T12:56:45;10.30;60.60
26099;DHT22;13860;52.370;6.764;2023-03-01T13:00:05;10.30;60.60
26099;DHT22;13860;52.370;6.764;2023-03-01T13:03:22;10.20;60.40
26099;DHT22;13860;52.370;6.764;2023-03-01T13:06:33;10.20;60.40
26099;DHT22;13860;52.370;6.764;2023-03-01T13:09:51;10.10;60.30
26099;DHT22;13860;52.370;6.764;2023-03-01T13:13:14;10.00;60.30
26099;DHT22;13860;52.370;6.764;2023-03-01T13:16:48;9.90;60.00
26099;DHT22;13860;52.370;6.764;2023-03-01T13:19:58;9.80;59.90
26099;DHT22;13860;52.370;6.764;2023-03-01T13:23:08;9.70;60.20
26099;DHT22;13860;52.370;6.764;2023-03-01T13:26:15;9.60;60.20
26099;DHT22;13860;52.370;6.764;2023-03-01T13:29:26;9.50;60.30
26099;DHT22;13860;52.370;6.764;2023-03-01T13:32:31;9.40;60.20
26099;DHT22;13860;52.370;6.764;2023-03-01T13:35:49;9.30;60.20
26099;DHT22;13860;52.370;6.764;2023-03-01T13:38:56;9.20;60.20
26099;DHT22;13860;52.370;6.764;2023-03-01T13:42:02;9.20;60.20
26099;DHT22;13860;52.370;6.764;2023-03-01T13:45:23;9.10;60.20
26099;DHT22;13860;52.370;6.764;2023-03-01T13:48:30;8.90;60.00
26099;DHT22;13860;52.370;6.764;2023-03-01T13:51:37;8.90;60.30
26099;DHT22;13860;52.370;6.764;2023-03-01T13:54:43;8.80;60.30
26099;DHT22;13860;52.370;6.764;2023-03-01T13:57:47;8.80;60.30
26099;DHT22;13860;52.370;6.764;2023-03-01T14:00:59;8.70;60.40
26099;DHT22;13860;52.370;6.764;2023-03-01T14:04:19;8.70;60.50
26099;DHT22;13860;52.370;6.764;2023-03-01T14:07:28;8.60;60.20
26099;DHT22;13860;52.370;6.764;2023-03-01T14:10:39;8.50;60.40
26099;DHT22;13860;52.370;6.764;2023-03-01T14:14:08;8.50;60.30
26099;DHT22;13860;52.370;6.764;2023-03-01T14:17:38;8.50;60.20
26099;DHT22;13860;52.370;6.764;2023-03-01T14:20:46;8.40;60.20
26099;DHT22;13860;52.370;6.764;2023-03-01T14:23:57;8.40;60.40
26099;DHT22;13860;52.370;6.764;2023-03-01T14:27:04;8.30;60.30
26099;DHT22;13860;52.370;6.764;2023-03-01T14:30:14;8.30;60.30
26099;DHT22;13860;52.370;6.764;2023-03-01T14:33:25;8.30;60.20
26099;DHT22;13860;52.370;6.764;2023-03-01T14:36:32;8.30;60.20
26099;DHT22;13860;52.370;6.764;2023-03-01T14:39:42;8.20;60.20
26099;DHT22;13860;52.370;6.764;2023-03-01T14:42:50;8.20;60.10
26099;DHT22;13860;52.370;6.764;2023-03-01T14:45:57;8.20;60.20
26099;DHT22;13860;52.370;6.764;2023-03-01T14:49:03;8.20;60.20
26099;DHT22;13860;52.370;6.764;2023-03-01T14:52:18;8.20;60.10
26099;DHT22;13860;52.370;6.764;2023-03-01T14:55:30;8.20;60.00
26099;DHT22;13860;52.370;6.764;2023-03-01T14:58:38;8.20;60.10
26099;DHT22;13860;52.370;6.764;2023-03-01T15:01:42;8.20;60.00
26099;DHT22;13860;52.370;6.764;2023-03-01T15:04:51;8.20;60.10
26099;DHT22;13860;52.370;6.764;2023-03-01T15:07:57;8.20;60.20
26099;DHT22;13860;52.370;6.764;2023-03-01T15:11:19;8.20;60.10
26099;DHT22;13860;52.370;6.764;2023-03-01T15:14:28;8.20;59.90
26099;DHT22;13860;52.370;6.764;2023-03-01T15:17:36;8.20;60.00
26099;DHT22;13860;52.370;6.764;2023-03-01T15:20:41;8.20;59.90
26099;DHT22;13860;52.370;6.764;2023-03-01T15:23:50;8.20;59.90
26099;DHT22;13860;52.370;6.764;2023-03-01T15:26:58;8.20;59.90
26099;DHT22;13860;52.370;6.764;2023-03-01T15:30:20;8.20;59.80
26099;DHT22;13860;52.370;6.764;2023-03-01T15:33:33;8.20;59.90
26099;DHT22;13860;52.370;6.764;2023-03-01T15:36:44;8.20;59.80
26099;DHT22;13860;52.370;6.764;2023-03-01T15:39:53;8.20;59.80
26099;DHT22;13860;52.370;6.764;2023-03-01T15:43:03;8.20;59.80
26099;DHT22;13860;52.370;6.764;2023-03-01T15:46:23;8.20;59.80
26099;DHT22;13860;52.370;6.764;2023-03-01T15:49:37;8.20;59.80
26099;DHT22;13860;52.370;6.764;2023-03-01T15:53:07;8.10;59.80
26099;DHT22;13860;52.370;6.764;2023-03-01T15:56:15;8.10;59.90
26099;DHT22;13860;52.370;6.764;2023-03-01T15:59:20;8.10;59.90
26099;DHT22;13860;52.370;6.764;2023-03-01T16:02:26;8.10;60.50
26099;DHT22;13860;52.370;6.764;2023-03-01T16:05:32;8.00;59.90
26099;DHT22;13860;52.370;6.764;2023-03-01T16:08:39;8.00;60.50
26099;DHT22;13860;52.370;6.764;2023-03-01T16:11:49;7.90;59.90
26099;DHT22;13860;52.370;6.764;2023-03-01T16:14:57;7.90;59.80
26099;DHT22;13860;52.370;6.764;2023-03-01T16:18:01;7.90;59.80
26099;DHT22;13860;52.370;6.764;2023-03-01T16:21:12;7.90;59.90
26099;DHT22;13860;52.370;6.764;2023-03-01T16:24:17;7.80;59.90
26099;DHT22;13860;52.370;6.764;2023-03-01T16:27:23;7.80;59.90
26099;DHT22;13860;52.370;6.764;2023-03-01T16:30:29;7.80;59.90
26099;DHT22;13860;52.370;6.764;2023-03-01T16:33:35;7.80;60.00
26099;DHT22;13860;52.370;6.764;2023-03-01T16:36:39;7.70;60.00
26099;DHT22;13860;52.370;6.764;2023-03-01T16:39:48;7.70;60.00
26099;DHT22;13860;52.370;6.764;2023-03-01T16:42:53;7.70;60.00
26099;DHT22;13860;52.370;6.764;2023-03-01T16:46:10;7.60;60.00
26099;DHT22;13860;52.370;6.764;2023-03-01T16:49:14;7.60;60.00
26099;DHT22;13860;52.370;6.764;2023-03-01T16:52:20;7.60;60.00
26099;DHT22;13860;52.370;6.764;2023-03-01T16:55:24;7.50;59.90
26099;DHT22;13860;52.370;6.764;2023-03-01T16:58:36;7.50;59.90
26099;DHT22;13860;52.370;6.764;2023-03-01T17:01:42;7.50;60.00
26099;DHT22;13860;52.370;6.764;2023-03-01T17:04:52;7.40;60.00
26099;DHT22;13860;52.370;6.764;2023-03-01T17:07:56;7.40;60.00
26099;DHT22;13860;52.370;6.764;2023-03-01T17:11:05;7.40;60.00
26099;DHT22;13860;52.370;6.764;2023-03-01T17:14:12;7.30;60.10
26099;DHT22;13860;52.370;6.764;2023-03-01T17:17:21;7.30;60.00
26099;DHT22;13860;52.370;6.764;2023-03-01T17:20:25;7.20;60.60
26099;DHT22;13860;52.370;6.764;2023-03-01T17:23:32;7.20;60.00
26099;DHT22;13860;52.370;6.764;2023-03-01T17:26:37;7.20;60.10
26099;DHT22;13860;52.370;6.764;2023-03-01T17:29:43;7.10;60.10
26099;DHT22;13860;52.370;6.764;2023-03-01T17:32:49;7.10;60.10
26099;DHT22;13860;52.370;6.764;2023-03-01T17:35:58;7.10;60.10
26099;DHT22;13860;52.370;6.764;2023-03-01T17:39:02;7.00;60.10
26099;DHT22;13860;52.370;6.764;2023-03-01T17:42:08;7.00;60.10
26099;DHT22;13860;52.370;6.764;2023-03-01T17:45:12;7.00;60.10
26099;DHT22;13860;52.370;6.764;2023-03-01T17:48:27;6.90;60.10
26099;DHT22;13860;52.370;6.764;2023-03-01T17:51:31;6.90;60.10
26099;DHT22;13860;52.370;6.764;2023-03-01T17:54:38;6.80;60.10
26099;DHT22;13860;52.370;6.764;2023-03-01T17:57:42;6.80;60.10
26099;DHT22;13860;52.370;6.764;2023-03-01T18:00:48;6.70;60.10
26099;DHT22;13860;52.370;6.764;2023-03-01T18:03:54;6.60;60.20
26099;DHT22;13860;52.370;6.764;2023-03-01T18:07:01;6.60;60.20
26099;DHT22;13860;52.370;6.764;2023-03-01T18:10:06;6.50;60.30
26099;DHT22;13860;52.370;6.764;2023-03-01T18:13:12;6.50;60.30
26099;DHT22;13860;52.370;6.764;2023-03-01T18:16:18;6.40;60.40
26099;DHT22;13860;52.370;6.764;2023-03-01T18:19:26;6.30;60.40
26099;DHT22;13860;52.370;6.764;2023-03-01T18:22:34;6.20;60.40
26099;DHT22;13860;52.370;6.764;2023-03-01T18:25:40;6.20;60.50
26099;DHT22;13860;52.370;6.764;2023-03-01T18:28:44;6.10;60.50
26099;DHT22;13860;52.370;6.764;2023-03-01T18:31:51;6.00;60.50
26099;DHT22;13860;52.370;6.764;2023-03-01T18:35:15;6.00;60.60
26099;DHT22;13860;52.370;6.764;2023-03-01T18:38:22;5.90;60.70
26099;DHT22;13860;52.370;6.764;2023-03-01T18:41:27;5.90;60.70
26099;DHT22;13860;52.370;6.764;2023-03-01T18:44:34;5.80;60.70
26099;DHT22;13860;52.370;6.764;2023-03-01T18:47:39;5.70;60.70
26099;DHT22;13860;52.370;6.764;2023-03-01T18:50:46;5.70;60.80
26099;DHT22;13860;52.370;6.764;2023-03-01T18:53:50;5.70;63.10
26099;DHT22;13860;52.370;6.764;2023-03-01T18:56:57;5.70;63.60
26099;DHT22;13860;52.370;6.764;2023-03-01T19:00:00;5.60;63.10
26099;DHT22;13860;52.370;6.764;2023-03-01T19:03:09;5.50;63.10
26099;DHT22;13860;52.370;6.764;2023-03-01T19:06:15;5.50;63.30
26099;DHT22;13860;52.370;6.764;2023-03-01T19:09:22;5.50;63.20
26099;DHT22;13860;52.370;6.764;2023-03-01T19:12:26;5.40;63.20
26099;DHT22;13860;52.370;6.764;2023-03-01T19:15:33;5.30;62.70
26099;DHT22;13860;52.370;6.764;2023-03-01T19:18:39;5.20;63.00
26099;DHT22;13860;52.370;6.764;2023-03-01T19:21:47;5.30;62.50
26099;DHT22;13860;52.370;6.764;2023-03-01T19:25:00;5.20;63.00
26099;DHT22;13860;52.370;6.764;2023-03-01T19:28:06;5.10;63.00
26099;DHT22;13860;52.370;6.764;2023-03-01T19:31:13;5.10;62.70
26099;DHT22;13860;52.370;6.764;2023-03-01T19:34:19;5.00;62.20
26099;DHT22;13860;52.370;6.764;2023-03-01T19:37:28;5.00;62.40
26099;DHT22;13860;52.370;6.764;2023-03-01T19:40:35;4.90;62.80
26099;DHT22;13860;52.370;6.764;2023-03-01T19:43:39;4.90;62.50
26099;DHT22;13860;52.370;6.764;2023-03-01T19:46:45;4.80;62.70
26099;DHT22;13860;52.370;6.764;2023-03-01T19:49:49;4.80;62.70
26099;DHT22;13860;52.370;6.764;2023-03-01T19:52:58;4.80;62.80
26099;DHT22;13860;52.370;6.764;2023-03-01T19:56:02;4.70;62.80
26099;DHT22;13860;52.370;6.764;2023-03-01T19:59:08;4.70;62.60
26099;DHT22;13860;52.370;6.764;2023-03-01T20:02:12;4.70;63.10
26099;DHT22;13860;52.370;6.764;2023-03-01T20:05:18;4.60;62.70
26099;DHT22;13860;52.370;6.764;2023-03-01T20:08:24;4.60;62.70